sensor_id;sensor_type;location;lat;lon;timestamp;P1;durP1;ratioP1;P2;durP2;ratioP2
8353;SDS011;4656;48.090;11.498;2023-08-17T00:01:28;8.63;;;6.25;;
8353;SDS011;4656;48.090;11.498;2023-08-17T00:03:31;10.07;;;6.53;;
8353;SDS011;4656;48.090;11.498;2023-08-17T00:05:33;9.82;;;6.43;;
8353;SDS011;4656;48.090;11.498;2023-08-17T00:07:36;10.23;;;6.50;;
8353;SDS011;4656;48.090;11.498;2023-08-17T00:09:38;7.07;;;6.17;;
8353;SDS011;4656;48.090;11.498;2023-08-17T00:11:40;9.15;;;6.28;;
8353;SDS011;4656;48.090;11.498;2023-08-17T00:13:42;7.13;;;6.43;;
8353;SDS011;4656;48.090;11.498;2023-08-17T00:15:44;8.77;;;6.70;;
8353;SDS011;4656;48.090;11.498;2023-08-17T00:17:47;7.45;;;6.13;;
8353;SDS011;4656;48.090;11.498;2023-08-17T00:19:50;7.32;;;6.35;;
8353;SDS011;4656;48.090;11.498;2023-08-17T00:21:53;7.22;;;6.47;;
8353;SDS011;4656;48.090;11.498;2023-08-17T00:23:55;8.73;;;6.60;;
8353;SDS011;4656;48.090;11.498;2023-08-17T00:25:57;9.35;;;6.60;;
8353;SDS011;4656;48.090;11.498;2023-08-17T00:27:59;8.23;;;6.55;;
8353;SDS011;4656;48.090;11.498;2023-08-17T00:30:01;7.28;;;6.13;;
8353;SDS011;4656;48.090;11.498;2023-08-17T00:32:04;10.20;;;6.45;;
8353;SDS011;4656;48.090;11.498;2023-08-17T00:34:06;9.02;;;6.50;;
8353;SDS011;4656;48.090;11.498;2023-08-17T00:36:09;8.75;;;6.65;;
8353;SDS011;4656;48.090;11.498;2023-08-17T00:38:10;7.32;;;6.18;;
8353;SDS011;4656;48.090;11.498;2023-08-17T00:40:13;7.00;;;6.30;;
8353;SDS011;4656;48.090;11.498;2023-08-17T00:42:15;7.82;;;5.90;;
8353;SDS011;4656;48.090;11.498;2023-08-17T00:44:17;7.10;;;6.40;;
8353;SDS011;4656;48.090;11.498;2023-08-17T00:46:19;9.25;;;6.60;;
8353;SDS011;4656;48.090;11.498;2023-08-17T00:48:23;7.05;;;6.35;;
8353;SDS011;4656;48.090;11.498;2023-08-17T00:50:25;7.82;;;6.60;;
8353;SDS011;4656;48.090;11.498;2023-08-17T00:52:28;8.07;;;6.55;;
8353;SDS011;4656;48.090;11.498;2023-08-17T00:54:32;8.40;;;6.63;;
8353;SDS011;4656;48.090;11.498;2023-08-17T00:56:34;9.85;;;6.72;;
8353;SDS011;4656;48.090;11.498;2023-08-17T00:58:37;7.88;;;6.30;;
8353;SDS011;4656;48.090;11.498;2023-08-17T01:00:40;7.07;;;6.35;;
8353;SDS011;4656;48.090;11.498;2023-08-17T01:02:42;7.82;;;6.22;;
8353;SDS011;4656;48.090;11.498;2023-08-17T01:04:44;8.07;;;6.50;;
8353;SDS011;4656;48.090;11.498;2023-08-17T01:06:46;8.15;;;7.30;;
8353;SDS011;4656;48.090;11.498;2023-08-17T01:08:50;7.25;;;6.55;;
8353;SDS011;4656;48.090;11.498;2023-08-17T01:10:52;7.78;;;6.97;;
8353;SDS011;4656;48.090;11.498;2023-08-17T01:12:59;8.57;;;6.57;;
8353;SDS011;4656;48.090;11.498;2023-08-17T01:15:04;9.50;;;6.63;;
8353;SDS011;4656;48.090;11.498;2023-08-17T01:17:06;8.07;;;6.90;;
8353;SDS011;4656;48.090;11.498;2023-08-17T01:19:12;9.00;;;6.95;;
8353;SDS011;4656;48.090;11.498;2023-08-17T01:21:14;9.43;;;7.50;;
8353;SDS011;4656;48.090;11.498;2023-08-17T01:23:20;8.15;;;7.00;;
8353;SDS011;4656;48.090;11.498;2023-08-17T01:25:22;8.38;;;6.97;;
8353;SDS011;4656;48.090;11.498;2023-08-17T01:27:25;9.27;;;7.27;;
8353;SDS011;4656;48.090;11.498;2023-08-17T01:29:27;8.93;;;7.95;;
8353;SDS011;4656;48.090;11.498;2023-08-17T01:31:30;7.80;;;7.00;;
8353;SDS011;4656;48.090;11.498;2023-08-17T01:33:34;8.85;;;7.22;;
8353;SDS011;4656;48.090;11.498;2023-08-17T01:35:39;8.00;;;7.05;;
8353;SDS011;4656;48.090;11.498;2023-08-17T01:37:44;8.27;;;7.23;;
8353;SDS011;4656;48.090;11.498;2023-08-17T01:39:49;8.27;;;7.00;;
8353;SDS011;4656;48.090;11.498;2023-08-17T01:41:51;7.87;;;7.07;;
8353;SDS011;4656;48.090;11.498;2023-08-17T01:43:54;11.57;;;7.65;;
8353;SDS011;4656;48.090;11.498;2023-08-17T01:45:56;8.73;;;7.10;;
8353;SDS011;4656;48.090;11.498;2023-08-17T01:47:59;7.63;;;6.90;;
8353;SDS011;4656;48.090;11.498;2023-08-17T01:50:01;7.97;;;7.15;;
8353;SDS011;4656;48.090;11.498;2023-08-17T01:52:03;10.63;;;8.13;;
8353;SDS011;4656;48.090;11.498;2023-08-17T01:54:06;11.55;;;8.65;;
8353;SDS011;4656;48.090;11.498;2023-08-17T01:56:09;9.20;;;8.05;;
8353;SDS011;4656;48.090;11.498;2023-08-17T01:58:11;9.27;;;8.18;;
8353;SDS011;4656;48.090;11.498;2023-08-17T02:00:14;11.32;;;8.18;;
8353;SDS011;4656;48.090;11.498;2023-08-17T02:02:15;11.38;;;9.32;;
8353;SDS011;4656;48.090;11.498;2023-08-17T02:04:18;9.20;;;8.30;;
8353;SDS011;4656;48.090;11.498;2023-08-17T02:06:20;10.23;;;8.30;;
8353;SDS011;4656;48.090;11.498;2023-08-17T02:08:22;13.35;;;9.45;;
8353;SDS011;4656;48.090;11.498;2023-08-17T02:10:24;10.55;;;9.20;;
8353;SDS011;4656;48.090;11.498;2023-08-17T02:12:28;9.82;;;8.38;;
8353;SDS011;4656;48.090;11.498;2023-08-17T02:14:30;9.00;;;8.10;;
8353;SDS011;4656;48.090;11.498;2023-08-17T02:16:32;10.07;;;8.40;;
8353;SDS011;4656;48.090;11.498;2023-08-17T02:18:34;9.07;;;8.00;;
8353;SDS011;4656;48.090;11.498;2023-08-17T02:20:37;10.25;;;8.77;;
8353;SDS011;4656;48.090;11.498;2023-08-17T02:22:39;9.77;;;8.02;;
8353;SDS011;4656;48.090;11.498;2023-08-17T02:24:41;9.70;;;7.72;;
8353;SDS011;4656;48.090;11.498;2023-08-17T02:26:45;12.53;;;8.83;;
8353;SDS011;4656;48.090;11.498;2023-08-17T02:28:48;10.23;;;8.80;;
8353;SDS011;4656;48.090;11.498;2023-08-17T02:30:54;8.73;;;7.82;;
8353;SDS011;4656;48.090;11.498;2023-08-17T02:32:59;9.55;;;8.55;;
8353;SDS011;4656;48.090;11.498;2023-08-17T02:35:05;11.07;;;8.67;;
8353;SDS011;4656;48.090;11.498;2023-08-17T02:37:07;11.75;;;8.00;;
8353;SDS011;4656;48.090;11.498;2023-08-17T02:39:09;9.13;;;8.20;;
8353;SDS011;4656;48.090;11.498;2023-08-17T02:41:11;10.15;;;8.20;;
8353;SDS011;4656;48.090;11.498;2023-08-17T02:43:13;9.60;;;7.63;;
8353;SDS011;4656;48.090;11.498;2023-08-17T02:45:16;9.20;;;8.30;;
8353;SDS011;4656;48.090;11.498;2023-08-17T02:47:18;9.90;;;7.80;;
8353;SDS011;4656;48.090;11.498;2023-08-17T02:49:20;9.23;;;8.02;;
8353;SDS011;4656;48.090;11.498;2023-08-17T02:51:22;10.95;;;8.50;;
8353;SDS011;4656;48.090;11.498;2023-08-17T02:53:24;10.02;;;8.60;;
8353;SDS011;4656;48.090;11.498;2023-08-17T02:55:27;9.07;;;8.10;;
8353;SDS011;4656;48.090;11.498;2023-08-17T02:57:28;9.43;;;8.40;;
8353;SDS011;4656;48.090;11.498;2023-08-17T02:59:30;9.32;;;8.27;;
8353;SDS011;4656;48.090;11.498;2023-08-17T03:01:33;8.75;;;7.95;;
8353;SDS011;4656;48.090;11.498;2023-08-17T03:03:35;12.15;;;9.00;;
8353;SDS011;4656;48.090;11.498;2023-08-17T03:05:36;10.90;;;8.77;;
8353;SDS011;4656;48.090;11.498;2023-08-17T03:07:39;12.05;;;9.82;;
8353;SDS011;4656;48.090;11.498;2023-08-17T03:09:41;12.90;;;8.98;;
8353;SDS011;4656;48.090;11.498;2023-08-17T03:11:43;10.15;;;9.05;;
8353;SDS011;4656;48.090;11.498;2023-08-17T03:13:45;10.77;;;8.32;;
8353;SDS011;4656;48.090;11.498;2023-08-17T03:15:48;10.63;;;8.82;;
8353;SDS011;4656;48.090;11.498;2023-08-17T03:17:51;12.10;;;8.43;;
8353;SDS011;4656;48.090;11.498;2023-08-17T03:19:53;12.88;;;9.23;;
8353;SDS011;4656;48.090;11.498;2023-08-17T03:21:59;11.38;;;8.75;;
8353;SDS011;4656;48.090;11.498;2023-08-17T03:24:01;10.68;;;8.18;;
8353;SDS011;4656;48.090;11.498;2023-08-17T03:26:03;10.48;;;8.75;;
8353;SDS011;4656;48.090;11.498;2023-08-17T03:28:05;11.80;;;8.20;;
8353;SDS011;4656;48.090;11.498;2023-08-17T03:30:07;9.00;;;8.10;;
8353;SDS011;4656;48.090;11.498;2023-08-17T03:32:09;10.93;;;8.37;;
8353;SDS011;4656;48.090;11.498;2023-08-17T03:34:12;9.73;;;8.57;;
8353;SDS011;4656;48.090;11.498;2023-08-17T03:36:14;9.43;;;8.43;;
8353;SDS011;4656;48.090;11.498;2023-08-17T03:38:17;11.13;;;8.60;;
8353;SDS011;4656;48.090;11.498;2023-08-17T03:40:18;8.63;;;7.70;;
8353;SDS011;4656;48.090;11.498;2023-08-17T03:42:20;10.45;;;8.00;;
8353;SDS011;4656;48.090;11.498;2023-08-17T03:44:22;9.40;;;8.10;;
8353;SDS011;4656;48.090;11.498;2023-08-17T03:46:24;11.00;;;8.98;;
8353;SDS011;4656;48.090;11.498;2023-08-17T03:48:26;11.93;;;9.02;;
8353;SDS011;4656;48.090;11.498;2023-08-17T03:50:30;10.80;;;8.50;;
8353;SDS011;4656;48.090;11.498;2023-08-17T03:52:32;10.73;;;8.13;;
8353;SDS011;4656;48.090;11.498;2023-08-17T03:54:33;8.93;;;7.97;;
8353;SDS011;4656;48.090;11.498;2023-08-17T03:56:35;10.63;;;8.40;;
8353;SDS011;4656;48.090;11.498;2023-08-17T03:58:37;9.30;;;8.07;;
8353;SDS011;4656;48.090;11.498;2023-08-17T04:00:39;9.65;;;7.80;;
8353;SDS011;4656;48.090;11.498;2023-08-17T04:02:42;9.65;;;8.15;;
8353;SDS011;4656;48.090;11.498;2023-08-17T04:04:44;8.65;;;7.63;;
8353;SDS011;4656;48.090;11.498;2023-08-17T04:06:48;8.88;;;7.95;;
8353;SDS011;4656;48.090;11.498;2023-08-17T04:08:50;9.48;;;7.78;;
8353;SDS011;4656;48.090;11.498;2023-08-17T04:10:52;8.63;;;7.78;;
8353;SDS011;4656;48.090;11.498;2023-08-17T04:12:53;9.32;;;8.35;;
8353;SDS011;4656;48.090;11.498;2023-08-17T04:14:55;11.13;;;8.00;;
8353;SDS011;4656;48.090;11.498;2023-08-17T04:16:57;9.60;;;8.60;;
8353;SDS011;4656;48.090;11.498;2023-08-17T04:18:59;10.30;;;8.20;;
8353;SDS011;4656;48.090;11.498;2023-08-17T04:21:02;11.00;;;8.23;;
8353;SDS011;4656;48.090;11.498;2023-08-17T04:23:05;11.35;;;8.20;;
8353;SDS011;4656;48.090;11.498;2023-08-17T04:25:07;10.75;;;8.60;;
8353;SDS011;4656;48.090;11.498;2023-08-17T04:27:10;8.85;;;7.72;;
8353;SDS011;4656;48.090;11.498;2023-08-17T04:29:13;10.50;;;8.18;;
8353;SDS011;4656;48.090;11.498;2023-08-17T04:31:15;8.55;;;7.65;;
8353;SDS011;4656;48.090;11.498;2023-08-17T04:33:18;8.93;;;7.63;;
8353;SDS011;4656;48.090;11.498;2023-08-17T04:35:20;9.30;;;8.40;;
8353;SDS011;4656;48.090;11.498;2023-08-17T04:37:22;9.68;;;7.90;;
8353;SDS011;4656;48.090;11.498;2023-08-17T04:39:26;9.50;;;6.80;;
8353;SDS011;4656;48.090;11.498;2023-08-17T04:41:28;6.93;;;5.82;;
8353;SDS011;4656;48.090;11.498;2023-08-17T04:43:30;7.25;;;5.65;;
8353;SDS011;4656;48.090;11.498;2023-08-17T04:45:32;6.35;;;5.75;;
8353;SDS011;4656;48.090;11.498;2023-08-17T04:47:34;7.10;;;6.25;;
8353;SDS011;4656;48.090;11.498;2023-08-17T04:49:35;7.80;;;6.47;;
8353;SDS011;4656;48.090;11.498;2023-08-17T04:51:38;6.57;;;5.70;;
8353;SDS011;4656;48.090;11.498;2023-08-17T04:53:40;9.18;;;5.60;;
8353;SDS011;4656;48.090;11.498;2023-08-17T04:55:43;7.88;;;5.72;;
8353;SDS011;4656;48.090;11.498;2023-08-17T04:57:45;6.40;;;5.30;;
8353;SDS011;4656;48.090;11.498;2023-08-17T04:59:48;5.82;;;5.22;;
8353;SDS011;4656;48.090;11.498;2023-08-17T05:01:49;5.55;;;4.93;;
8353;SDS011;4656;48.090;11.498;2023-08-17T05:03:51;6.22;;;4.50;;
8353;SDS011;4656;48.090;11.498;2023-08-17T05:05:53;6.35;;;4.72;;
8353;SDS011;4656;48.090;11.498;2023-08-17T05:07:55;5.75;;;5.15;;
8353;SDS011;4656;48.090;11.498;2023-08-17T05:09:57;6.50;;;4.73;;
8353;SDS011;4656;48.090;11.498;2023-08-17T05:12:01;5.18;;;4.43;;
8353;SDS011;4656;48.090;11.498;2023-08-17T05:14:03;5.32;;;4.63;;
8353;SDS011;4656;48.090;11.498;2023-08-17T05:16:05;6.28;;;4.97;;
8353;SDS011;4656;48.090;11.498;2023-08-17T05:18:07;7.22;;;5.30;;
8353;SDS011;4656;48.090;11.498;2023-08-17T05:20:10;5.00;;;4.50;;
8353;SDS011;4656;48.090;11.498;2023-08-17T05:22:13;9.68;;;4.68;;
8353;SDS011;4656;48.090;11.498;2023-08-17T05:24:16;6.25;;;4.40;;
8353;SDS011;4656;48.090;11.498;2023-08-17T05:26:18;7.57;;;4.53;;
8353;SDS011;4656;48.090;11.498;2023-08-17T05:28:21;5.65;;;4.47;;
8353;SDS011;4656;48.090;11.498;2023-08-17T05:30:23;4.43;;;3.97;;
8353;SDS011;4656;48.090;11.498;2023-08-17T05:32:25;5.00;;;4.05;;
8353;SDS011;4656;48.090;11.498;2023-08-17T05:34:28;4.57;;;4.00;;
8353;SDS011;4656;48.090;11.498;2023-08-17T05:36:30;5.32;;;3.70;;
8353;SDS011;4656;48.090;11.498;2023-08-17T05:38:32;7.20;;;4.82;;
8353;SDS011;4656;48.090;11.498;2023-08-17T05:40:34;4.78;;;3.72;;
8353;SDS011;4656;48.090;11.498;2023-08-17T05:42:36;5.75;;;3.70;;
8353;SDS011;4656;48.090;11.498;2023-08-17T05:44:40;5.97;;;3.80;;
8353;SDS011;4656;48.090;11.498;2023-08-17T05:46:43;4.15;;;3.75;;
8353;SDS011;4656;48.090;11.498;2023-08-17T05:48:45;4.38;;;3.88;;
8353;SDS011;4656;48.090;11.498;2023-08-17T05:50:47;5.13;;;4.47;;
8353;SDS011;4656;48.090;11.498;2023-08-17T05:52:49;4.40;;;4.00;;
8353;SDS011;4656;48.090;11.498;2023-08-17T05:54:51;4.95;;;4.38;;
8353;SDS011;4656;48.090;11.498;2023-08-17T05:56:53;5.97;;;3.95;;
8353;SDS011;4656;48.090;11.498;2023-08-17T05:58:56;4.35;;;3.95;;
8353;SDS011;4656;48.090;11.498;2023-08-17T06:01:05;4.77;;;3.80;;
8353;SDS011;4656;48.090;11.498;2023-08-17T06:03:07;4.57;;;4.18;;
8353;SDS011;4656;48.090;11.498;2023-08-17T06:05:09;4.95;;;3.38;;
8353;SDS011;4656;48.090;11.498;2023-08-17T06:07:11;4.90;;;3.80;;
8353;SDS011;4656;48.090;11.498;2023-08-17T06:09:13;4.57;;;3.63;;
8353;SDS011;4656;48.090;11.498;2023-08-17T06:11:15;4.95;;;3.65;;
8353;SDS011;4656;48.090;11.498;2023-08-17T06:13:17;3.80;;;3.50;;
8353;SDS011;4656;48.090;11.498;2023-08-17T06:15:18;3.53;;;3.22;;
8353;SDS011;4656;48.090;11.498;2023-08-17T06:17:22;4.10;;;3.70;;
8353;SDS011;4656;48.090;11.498;2023-08-17T06:19:24;3.55;;;3.25;;
8353;SDS011;4656;48.090;11.498;2023-08-17T06:21:25;3.80;;;3.50;;
8353;SDS011;4656;48.090;11.498;2023-08-17T06:23:27;4.20;;;3.80;;
8353;SDS011;4656;48.090;11.498;2023-08-17T06:25:30;3.70;;;3.40;;
8353;SDS011;4656;48.090;11.498;2023-08-17T06:27:32;3.42;;;3.10;;
8353;SDS011;4656;48.090;11.498;2023-08-17T06:29:34;4.93;;;3.20;;
8353;SDS011;4656;48.090;11.498;2023-08-17T06:31:37;4.55;;;3.30;;
8353;SDS011;4656;48.090;11.498;2023-08-17T06:33:40;4.97;;;3.42;;
8353;SDS011;4656;48.090;11.498;2023-08-17T06:35:42;4.87;;;3.47;;
8353;SDS011;4656;48.090;11.498;2023-08-17T06:37:44;4.57;;;3.53;;
8353;SDS011;4656;48.090;11.498;2023-08-17T06:39:47;4.40;;;3.30;;
8353;SDS011;4656;48.090;11.498;2023-08-17T06:41:49;4.60;;;3.53;;
8353;SDS011;4656;48.090;11.498;2023-08-17T06:43:51;3.50;;;3.20;;
8353;SDS011;4656;48.090;11.498;2023-08-17T06:45:53;4.10;;;3.38;;
8353;SDS011;4656;48.090;11.498;2023-08-17T06:47:56;5.97;;;3.42;;
8353;SDS011;4656;48.090;11.498;2023-08-17T06:50:00;4.95;;;3.65;;
8353;SDS011;4656;48.090;11.498;2023-08-17T06:52:02;4.32;;;3.40;;
8353;SDS011;4656;48.090;11.498;2023-08-17T06:54:04;4.07;;;3.30;;
8353;SDS011;4656;48.090;11.498;2023-08-17T06:56:06;3.30;;;3.00;;
8353;SDS011;4656;48.090;11.498;2023-08-17T06:58:08;3.75;;;3.35;;
8353;SDS011;4656;48.090;11.498;2023-08-17T07:00:11;3.65;;;3.35;;
8353;SDS011;4656;48.090;11.498;2023-08-17T07:02:13;5.50;;;3.05;;
8353;SDS011;4656;48.090;11.498;2023-08-17T07:04:15;5.53;;;3.45;;
8353;SDS011;4656;48.090;11.498;2023-08-17T07:06:18;3.47;;;3.17;;
8353;SDS011;4656;48.090;11.498;2023-08-17T07:08:20;3.00;;;2.80;;
8353;SDS011;4656;48.090;11.498;2023-08-17T07:10:23;4.73;;;2.80;;
8353;SDS011;4656;48.090;11.498;2023-08-17T07:12:28;3.47;;;2.97;;
8353;SDS011;4656;48.090;11.498;2023-08-17T07:14:30;4.90;;;3.10;;
8353;SDS011;4656;48.090;11.498;2023-08-17T07:16:31;4.20;;;3.20;;
8353;SDS011;4656;48.090;11.498;2023-08-17T07:18:33;4.38;;;3.10;;
8353;SDS011;4656;48.090;11.498;2023-08-17T07:20:35;3.33;;;2.93;;
8353;SDS011;4656;48.090;11.498;2023-08-17T07:22:39;4.30;;;3.20;;
8353;SDS011;4656;48.090;11.498;2023-08-17T07:24:41;3.83;;;3.20;;
8353;SDS011;4656;48.090;11.498;2023-08-17T07:26:43;3.20;;;2.90;;
8353;SDS011;4656;48.090;11.498;2023-08-17T07:28:45;3.20;;;2.90;;
8353;SDS011;4656;48.090;11.498;2023-08-17T07:30:47;3.22;;;2.75;;
8353;SDS011;4656;48.090;11.498;2023-08-17T07:32:49;3.22;;;2.90;;
8353;SDS011;4656;48.090;11.498;2023-08-17T07:34:52;3.33;;;2.85;;
8353;SDS011;4656;48.090;11.498;2023-08-17T07:36:54;4.03;;;2.97;;
8353;SDS011;4656;48.090;11.498;2023-08-17T07:38:57;4.07;;;3.67;;
8353;SDS011;4656;48.090;11.498;2023-08-17T07:40:59;3.10;;;2.80;;
8353;SDS011;4656;48.090;11.498;2023-08-17T07:43:00;3.33;;;3.03;;
8353;SDS011;4656;48.090;11.498;2023-08-17T07:45:03;3.08;;;2.88;;
8353;SDS011;4656;48.090;11.498;2023-08-17T07:47:06;5.38;;;3.20;;
8353;SDS011;4656;48.090;11.498;2023-08-17T07:49:08;4.30;;;2.90;;
8353;SDS011;4656;48.090;11.498;2023-08-17T07:51:10;3.50;;;3.00;;
8353;SDS011;4656;48.090;11.498;2023-08-17T07:53:12;3.38;;;3.08;;
8353;SDS011;4656;48.090;11.498;2023-08-17T07:55:16;3.67;;;3.33;;
8353;SDS011;4656;48.090;11.498;2023-08-17T07:57:18;3.80;;;3.00;;
8353;SDS011;4656;48.090;11.498;2023-08-17T07:59:20;3.00;;;2.75;;
8353;SDS011;4656;48.090;11.498;2023-08-17T08:01:22;3.45;;;2.88;;
8353;SDS011;4656;48.090;11.498;2023-08-17T08:03:24;3.83;;;2.90;;
8353;SDS011;4656;48.090;11.498;2023-08-17T08:05:27;5.55;;;3.17;;
8353;SDS011;4656;48.090;11.498;2023-08-17T08:07:29;2.97;;;2.72;;
8353;SDS011;4656;48.090;11.498;2023-08-17T08:09:32;3.83;;;3.03;;
8353;SDS011;4656;48.090;11.498;2023-08-17T08:11:35;3.10;;;2.80;;
8353;SDS011;4656;48.090;11.498;2023-08-17T08:13:37;3.92;;;3.17;;
8353;SDS011;4656;48.090;11.498;2023-08-17T08:15:39;3.92;;;3.50;;
8353;SDS011;4656;48.090;11.498;2023-08-17T08:17:42;3.40;;;2.90;;
8353;SDS011;4656;48.090;11.498;2023-08-17T08:19:44;2.95;;;2.75;;
8353;SDS011;4656;48.090;11.498;2023-08-17T08:21:46;6.47;;;3.00;;
8353;SDS011;4656;48.090;11.498;2023-08-17T08:23:48;3.10;;;2.80;;
8353;SDS011;4656;48.090;11.498;2023-08-17T08:25:50;3.03;;;2.58;;
8353;SDS011;4656;48.090;11.498;2023-08-17T08:27:54;3.17;;;2.87;;
8353;SDS011;4656;48.090;11.498;2023-08-17T08:29:55;2.70;;;2.50;;
8353;SDS011;4656;48.090;11.498;2023-08-17T08:31:57;3.35;;;2.58;;
8353;SDS011;4656;48.090;11.498;2023-08-17T08:34:02;3.20;;;2.90;;
8353;SDS011;4656;48.090;11.498;2023-08-17T08:36:04;3.47;;;2.92;;
8353;SDS011;4656;48.090;11.498;2023-08-17T08:38:06;3.10;;;2.80;;
8353;SDS011;4656;48.090;11.498;2023-08-17T08:40:10;4.95;;;3.13;;
8353;SDS011;4656;48.090;11.498;2023-08-17T08:42:12;4.70;;;2.80;;
8353;SDS011;4656;48.090;11.498;2023-08-17T08:44:15;3.53;;;2.75;;
8353;SDS011;4656;48.090;11.498;2023-08-17T08:46:17;3.10;;;2.87;;
8353;SDS011;4656;48.090;11.498;2023-08-17T08:48:20;4.28;;;2.88;;
8353;SDS011;4656;48.090;11.498;2023-08-17T08:50:23;3.40;;;3.10;;
8353;SDS011;4656;48.090;11.498;2023-08-17T08:52:30;4.07;;;3.17;;
8353;SDS011;4656;48.090;11.498;2023-08-17T08:54:32;4.43;;;2.90;;
8353;SDS011;4656;48.090;11.498;2023-08-17T08:56:35;3.78;;;3.10;;
8353;SDS011;4656;48.090;11.498;2023-08-17T08:58:40;4.38;;;3.10;;
8353;SDS011;4656;48.090;11.498;2023-08-17T09:00:45;3.30;;;3.00;;
8353;SDS011;4656;48.090;11.498;2023-08-17T09:02:47;3.45;;;3.03;;
8353;SDS011;4656;48.090;11.498;2023-08-17T09:04:50;3.25;;;2.75;;
8353;SDS011;4656;48.090;11.498;2023-08-17T09:06:52;3.30;;;3.00;;
8353;SDS011;4656;48.090;11.498;2023-08-17T09:08:55;3.72;;;2.88;;
8353;SDS011;4656;48.090;11.498;2023-08-17T09:10:58;4.70;;;3.15;;
8353;SDS011;4656;48.090;11.498;2023-08-17T09:13:00;3.38;;;3.05;;
8353;SDS011;4656;48.090;11.498;2023-08-17T09:15:03;4.13;;;3.00;;
8353;SDS011;4656;48.090;11.498;2023-08-17T09:17:05;3.03;;;2.83;;
8353;SDS011;4656;48.090;11.498;2023-08-17T09:19:07;3.13;;;2.83;;
8353;SDS011;4656;48.090;11.498;2023-08-17T09:21:19;3.25;;;2.95;;
8353;SDS011;4656;48.090;11.498;2023-08-17T09:23:21;3.47;;;2.72;;
8353;SDS011;4656;48.090;11.498;2023-08-17T09:25:24;5.70;;;3.20;;
8353;SDS011;4656;48.090;11.498;2023-08-17T09:27:26;3.47;;;3.17;;
8353;SDS011;4656;48.090;11.498;2023-08-17T09:29:28;3.22;;;2.92;;
8353;SDS011;4656;48.090;11.498;2023-08-17T09:31:36;3.17;;;2.90;;
8353;SDS011;4656;48.090;11.498;2023-08-17T09:33:42;3.00;;;2.80;;
8353;SDS011;4656;48.090;11.498;2023-08-17T09:35:44;5.45;;;2.95;;
8353;SDS011;4656;48.090;11.498;2023-08-17T09:37:46;4.03;;;3.10;;
8353;SDS011;4656;48.090;11.498;2023-08-17T09:39:49;3.70;;;3.40;;
8353;SDS011;4656;48.090;11.498;2023-08-17T09:41:51;3.22;;;2.90;;
8353;SDS011;4656;48.090;11.498;2023-08-17T09:43:56;3.80;;;3.10;;
8353;SDS011;4656;48.090;11.498;2023-08-17T09:45:58;3.55;;;3.30;;
8353;SDS011;4656;48.090;11.498;2023-08-17T09:48:02;3.00;;;2.70;;
8353;SDS011;4656;48.090;11.498;2023-08-17T09:50:05;3.10;;;2.78;;
8353;SDS011;4656;48.090;11.498;2023-08-17T09:52:07;3.40;;;3.10;;
8353;SDS011;4656;48.090;11.498;2023-08-17T09:54:13;3.10;;;2.90;;
8353;SDS011;4656;48.090;11.498;2023-08-17T09:56:20;3.45;;;3.10;;
8353;SDS011;4656;48.090;11.498;2023-08-17T09:58:23;5.03;;;3.00;;
8353;SDS011;4656;48.090;11.498;2023-08-17T10:00:25;3.00;;;2.80;;
8353;SDS011;4656;48.090;11.498;2023-08-17T10:02:29;3.90;;;3.00;;
8353;SDS011;4656;48.090;11.498;2023-08-17T10:04:32;3.10;;;2.80;;
8353;SDS011;4656;48.090;11.498;2023-08-17T10:06:37;3.00;;;2.70;;
8353;SDS011;4656;48.090;11.498;2023-08-17T10:08:42;3.00;;;2.70;;
8353;SDS011;4656;48.090;11.498;2023-08-17T10:10:44;2.90;;;2.60;;
8353;SDS011;4656;48.090;11.498;2023-08-17T10:12:48;3.40;;;2.80;;
8353;SDS011;4656;48.090;11.498;2023-08-17T10:14:53;3.00;;;2.70;;
8353;SDS011;4656;48.090;11.498;2023-08-17T10:16:57;3.03;;;2.72;;
8353;SDS011;4656;48.090;11.498;2023-08-17T10:19:04;3.25;;;2.83;;
8353;SDS011;4656;48.090;11.498;2023-08-17T10:21:09;3.05;;;2.75;;
8353;SDS011;4656;48.090;11.498;2023-08-17T10:23:14;2.95;;;2.75;;
8353;SDS011;4656;48.090;11.498;2023-08-17T10:25:15;3.95;;;2.88;;
8353;SDS011;4656;48.090;11.498;2023-08-17T10:27:20;2.92;;;2.72;;
8353;SDS011;4656;48.090;11.498;2023-08-17T10:29:22;4.57;;;2.90;;
8353;SDS011;4656;48.090;11.498;2023-08-17T10:31:24;3.30;;;3.03;;
8353;SDS011;4656;48.090;11.498;2023-08-17T10:33:26;4.35;;;2.90;;
8353;SDS011;4656;48.090;11.498;2023-08-17T10:35:28;3.40;;;3.10;;
8353;SDS011;4656;48.090;11.498;2023-08-17T10:37:31;3.83;;;3.00;;
8353;SDS011;4656;48.090;11.498;2023-08-17T10:39:42;4.22;;;2.72;;
8353;SDS011;4656;48.090;11.498;2023-08-17T10:41:46;3.10;;;2.80;;
8353;SDS011;4656;48.090;11.498;2023-08-17T10:43:55;3.05;;;2.75;;
8353;SDS011;4656;48.090;11.498;2023-08-17T10:45:58;3.30;;;3.00;;
8353;SDS011;4656;48.090;11.498;2023-08-17T10:48:25;4.57;;;3.00;;
8353;SDS011;4656;48.090;11.498;2023-08-17T10:50:28;2.92;;;2.72;;
8353;SDS011;4656;48.090;11.498;2023-08-17T10:52:31;3.20;;;2.90;;
8353;SDS011;4656;48.090;11.498;2023-08-17T10:54:37;3.28;;;2.90;;
8353;SDS011;4656;48.090;11.498;2023-08-17T10:56:40;3.47;;;2.63;;
8353;SDS011;4656;48.090;11.498;2023-08-17T10:58:42;3.88;;;2.92;;
8353;SDS011;4656;48.090;11.498;2023-08-17T11:00:44;2.97;;;2.70;;
8353;SDS011;4656;48.090;11.498;2023-08-17T11:02:51;2.85;;;2.60;;
8353;SDS011;4656;48.090;11.498;2023-08-17T11:04:54;3.22;;;2.78;;
8353;SDS011;4656;48.090;11.498;2023-08-17T11:07:00;3.30;;;2.78;;
8353;SDS011;4656;48.090;11.498;2023-08-17T11:09:05;3.20;;;2.60;;
8353;SDS011;4656;48.090;11.498;2023-08-17T11:11:11;3.20;;;2.90;;
8353;SDS011;4656;48.090;11.498;2023-08-17T11:13:13;3.28;;;2.60;;
8353;SDS011;4656;48.090;11.498;2023-08-17T11:15:15;4.20;;;2.75;;
8353;SDS011;4656;48.090;11.498;2023-08-17T11:17:16;2.55;;;2.28;;
8353;SDS011;4656;48.090;11.498;2023-08-17T11:19:22;3.72;;;2.88;;
8353;SDS011;4656;48.090;11.498;2023-08-17T11:21:24;2.70;;;2.50;;
8353;SDS011;4656;48.090;11.498;2023-08-17T11:23:28;3.22;;;2.60;;
8353;SDS011;4656;48.090;11.498;2023-08-17T11:25:31;4.27;;;3.07;;
8353;SDS011;4656;48.090;11.498;2023-08-17T11:27:35;3.13;;;2.80;;
8353;SDS011;4656;48.090;11.498;2023-08-17T11:29:38;4.32;;;2.78;;
8353;SDS011;4656;48.090;11.498;2023-08-17T11:31:40;2.90;;;2.70;;
8353;SDS011;4656;48.090;11.498;2023-08-17T11:33:42;4.28;;;2.80;;
8353;SDS011;4656;48.090;11.498;2023-08-17T11:35:46;2.60;;;2.40;;
8353;SDS011;4656;48.090;11.498;2023-08-17T11:37:50;2.90;;;2.58;;
8353;SDS011;4656;48.090;11.498;2023-08-17T11:39:51;3.10;;;2.67;;
8353;SDS011;4656;48.090;11.498;2023-08-17T11:41:53;4.80;;;2.70;;
8353;SDS011;4656;48.090;11.498;2023-08-17T11:43:56;3.50;;;2.67;;
8353;SDS011;4656;48.090;11.498;2023-08-17T11:45:59;2.90;;;2.58;;
8353;SDS011;4656;48.090;11.498;2023-08-17T11:48:01;3.13;;;2.83;;
8353;SDS011;4656;48.090;11.498;2023-08-17T11:50:05;3.30;;;2.43;;
8353;SDS011;4656;48.090;11.498;2023-08-17T11:52:08;2.60;;;2.40;;
8353;SDS011;4656;48.090;11.498;2023-08-17T11:54:11;2.85;;;2.65;;
8353;SDS011;4656;48.090;11.498;2023-08-17T11:56:13;3.70;;;2.75;;
8353;SDS011;4656;48.090;11.498;2023-08-17T11:58:15;2.97;;;2.67;;
8353;SDS011;4656;48.090;11.498;2023-08-17T12:00:19;3.72;;;2.60;;
8353;SDS011;4656;48.090;11.498;2023-08-17T12:02:22;2.63;;;2.42;;
8353;SDS011;4656;48.090;11.498;2023-08-17T12:04:24;3.55;;;2.63;;
8353;SDS011;4656;48.090;11.498;2023-08-17T12:06:26;4.13;;;2.30;;
8353;SDS011;4656;48.090;11.498;2023-08-17T12:08:29;4.10;;;2.70;;
8353;SDS011;4656;48.090;11.498;2023-08-17T12:10:31;3.40;;;2.50;;
8353;SDS011;4656;48.090;11.498;2023-08-17T12:12:36;2.80;;;2.60;;
8353;SDS011;4656;48.090;11.498;2023-08-17T12:14:41;3.72;;;2.45;;
8353;SDS011;4656;48.090;11.498;2023-08-17T12:16:48;3.08;;;2.60;;
8353;SDS011;4656;48.090;11.498;2023-08-17T12:18:50;2.80;;;2.60;;
8353;SDS011;4656;48.090;11.498;2023-08-17T12:20:53;2.65;;;2.45;;
8353;SDS011;4656;48.090;11.498;2023-08-17T12:22:54;2.60;;;2.40;;
8353;SDS011;4656;48.090;11.498;2023-08-17T12:24:58;3.25;;;2.40;;
8353;SDS011;4656;48.090;11.498;2023-08-17T12:27:01;3.38;;;2.72;;
8353;SDS011;4656;48.090;11.498;2023-08-17T12:29:04;3.23;;;2.80;;
8353;SDS011;4656;48.090;11.498;2023-08-17T12:31:07;2.78;;;2.50;;